sensor_id;sensor_type;location;lat;lon;timestamp;temperature;humidity
21895;DHT22;11112;51.270;7.224;2022-11-18T00:01:06;11.10;99.90
21895;DHT22;11112;51.270;7.224;2022-11-18T00:03:34;11.10;99.90
21895;DHT22;11112;51.270;7.224;2022-11-18T00:06:02;11.10;99.90
21895;DHT22;11112;51.270;7.224;2022-11-18T00:08:31;11.10;99.90
21895;DHT22;11112;51.270;7.224;2022-11-18T00:11:05;11.10;99.90
21895;DHT22;11112;51.270;7.224;2022-11-18T00:13:34;11.10;99.90
21895;DHT22;11112;51.270;7.224;2022-11-18T00:16:21;11.10;99.90
21895;DHT22;11112;51.270;7.224;2022-11-18T00:18:49;11.10;99.90
21895;DHT22;11112;51.270;7.224;2022-11-18T00:21:18;11.10;99.90
21895;DHT22;11112;51.270;7.224;2022-11-18T00:23:49;11.10;99.90
21895;DHT22;11112;51.270;7.224;2022-11-18T00:26:17;11.20;99.90
21895;DHT22;11112;51.270;7.224;2022-11-18T00:28:45;11.20;99.90
21895;DHT22;11112;51.270;7.224;2022-11-18T00:31:13;11.20;99.90
21895;DHT22;11112;51.270;7.224;2022-11-18T00:33:41;11.10;99.90
21895;DHT22;11112;51.270;7.224;2022-11-18T00:36:10;11.20;99.90
21895;DHT22;11112;51.270;7.224;2022-11-18T00:38:38;11.20;99.90
21895;DHT22;11112;51.270;7.224;2022-11-18T00:41:08;11.20;99.90
21895;DHT22;11112;51.270;7.224;2022-11-18T00:43:38;11.10;99.90
21895;DHT22;11112;51.270;7.224;2022-11-18T00:46:05;11.10;99.90
21895;DHT22;11112;51.270;7.224;2022-11-18T00:48:34;11.10;99.90
21895;DHT22;11112;51.270;7.224;2022-11-18T00:51:07;11.10;99.90
21895;DHT22;11112;51.270;7.224;2022-11-18T00:53:36;11.00;99.90
21895;DHT22;11112;51.270;7.224;2022-11-18T00:56:04;10.90;99.90
21895;DHT22;11112;51.270;7.224;2022-11-18T00:58:32;10.90;99.90
21895;DHT22;11112;51.270;7.224;2022-11-18T01:01:02;10.90;99.90
21895;DHT22;11112;51.270;7.224;2022-11-18T01:03:30;10.90;99.90
21895;DHT22;11112;51.270;7.224;2022-11-18T01:05:57;10.90;99.90
21895;DHT22;11112;51.270;7.224;2022-11-18T01:08:24;10.90;99.90
21895;DHT22;11112;51.270;7.224;2022-11-18T01:10:52;11.00;99.90
21895;DHT22;11112;51.270;7.224;2022-11-18T01:13:20;11.00;99.90
21895;DHT22;11112;51.270;7.224;2022-11-18T01:15:52;11.10;99.90
21895;DHT22;11112;51.270;7.224;2022-11-18T01:18:25;11.10;99.90
21895;DHT22;11112;51.270;7.224;2022-11-18T01:20:59;11.10;99.90
21895;DHT22;11112;51.270;7.224;2022-11-18T01:23:27;11.10;99.90
21895;DHT22;11112;51.270;7.224;2022-11-18T01:25:54;11.10;99.90
21895;DHT22;11112;51.270;7.224;2022-11-18T01:28:24;11.10;99.90
21895;DHT22;11112;51.270;7.224;2022-11-18T01:30:51;11.10;99.90
21895;DHT22;11112;51.270;7.224;2022-11-18T01:33:18;11.10;99.90
21895;DHT22;11112;51.270;7.224;2022-11-18T01:35:47;11.20;99.90
21895;DHT22;11112;51.270;7.224;2022-11-18T01:38:15;11.20;99.90
21895;DHT22;11112;51.270;7.224;2022-11-18T01:40:46;11.20;99.90
21895;DHT22;11112;51.270;7.224;2022-11-18T01:43:16;11.20;99.90
21895;DHT22;11112;51.270;7.224;2022-11-18T01:45:46;11.20;99.90
21895;DHT22;11112;51.270;7.224;2022-11-18T01:48:17;11.20;99.90
21895;DHT22;11112;51.270;7.224;2022-11-18T01:50:51;11.20;99.90
21895;DHT22;11112;51.270;7.224;2022-11-18T01:53:23;11.30;99.90
21895;DHT22;11112;51.270;7.224;2022-11-18T01:55:54;11.20;99.90
21895;DHT22;11112;51.270;7.224;2022-11-18T01:58:25;11.10;99.90
21895;DHT22;11112;51.270;7.224;2022-11-18T02:00:54;11.10;99.90
21895;DHT22;11112;51.270;7.224;2022-11-18T02:03:24;11.10;99.90
21895;DHT22;11112;51.270;7.224;2022-11-18T02:05:55;11.10;99.90
21895;DHT22;11112;51.270;7.224;2022-11-18T02:08:25;11.10;99.90
21895;DHT22;11112;51.270;7.224;2022-11-18T02:10:52;11.10;99.90
21895;DHT22;11112;51.270;7.224;2022-11-18T02:13:21;11.10;99.90
21895;DHT22;11112;51.270;7.224;2022-11-18T02:15:54;11.20;99.90
21895;DHT22;11112;51.270;7.224;2022-11-18T02:18:36;11.20;99.90
21895;DHT22;11112;51.270;7.224;2022-11-18T02:21:20;11.20;99.90
21895;DHT22;11112;51.270;7.224;2022-11-18T02:24:25;11.20;99.90
21895;DHT22;11112;51.270;7.224;2022-11-18T02:27:10;11.20;99.90
21895;DHT22;11112;51.270;7.224;2022-11-18T02:29:54;11.20;99.90
21895;DHT22;11112;51.270;7.224;2022-11-18T02:32:26;11.20;99.90
21895;DHT22;11112;51.270;7.224;2022-11-18T02:35:00;11.30;99.90
21895;DHT22;11112;51.270;7.224;2022-11-18T02:37:33;11.30;99.90
21895;DHT22;11112;51.270;7.224;2022-11-18T02:40:06;11.30;99.90
21895;DHT22;11112;51.270;7.224;2022-11-18T02:42:38;11.20;99.90
21895;DHT22;11112;51.270;7.224;2022-11-18T02:45:13;11.20;99.90
21895;DHT22;11112;51.270;7.224;2022-11-18T02:47:44;11.20;99.90
21895;DHT22;11112;51.270;7.224;2022-11-18T02:50:16;11.30;99.90
21895;DHT22;11112;51.270;7.224;2022-11-18T02:52:50;11.20;99.90
21895;DHT22;11112;51.270;7.224;2022-11-18T02:55:21;11.20;99.90
21895;DHT22;11112;51.270;7.224;2022-11-18T02:57:49;11.30;99.90
21895;DHT22;11112;51.270;7.224;2022-11-18T03:00:19;11.20;99.90
21895;DHT22;11112;51.270;7.224;2022-11-18T03:02:48;11.20;99.90
21895;DHT22;11112;51.270;7.224;2022-11-18T03:05:20;11.20;99.90
21895;DHT22;11112;51.270;7.224;2022-11-18T03:07:55;11.20;99.90
21895;DHT22;11112;51.270;7.224;2022-11-18T03:10:31;11.30;99.90
21895;DHT22;11112;51.270;7.224;2022-11-18T03:13:07;11.30;99.90
21895;DHT22;11112;51.270;7.224;2022-11-18T03:15:47;11.30;99.90
21895;DHT22;11112;51.270;7.224;2022-11-18T03:18:25;11.30;99.90
21895;DHT22;11112;51.270;7.224;2022-11-18T03:21:01;11.20;99.90
21895;DHT22;11112;51.270;7.224;2022-11-18T03:23:37;11.20;99.90
21895;DHT22;11112;51.270;7.224;2022-11-18T03:26:10;11.20;99.90
21895;DHT22;11112;51.270;7.224;2022-11-18T03:28:42;11.20;99.90
21895;DHT22;11112;51.270;7.224;2022-11-18T03:31:20;11.30;99.90
21895;DHT22;11112;51.270;7.224;2022-11-18T03:33:55;11.30;99.90
21895;DHT22;11112;51.270;7.224;2022-11-18T03:36:27;11.30;99.90
21895;DHT22;11112;51.270;7.224;2022-11-18T03:38:59;11.20;99.90
21895;DHT22;11112;51.270;7.224;2022-11-18T03:41:31;11.20;99.90
21895;DHT22;11112;51.270;7.224;2022-11-18T03:44:05;11.30;99.90
21895;DHT22;11112;51.270;7.224;2022-11-18T03:46:39;11.30;99.90
21895;DHT22;11112;51.270;7.224;2022-11-18T03:49:12;11.30;99.90
21895;DHT22;11112;51.270;7.224;2022-11-18T03:51:47;11.30;99.90
21895;DHT22;11112;51.270;7.224;2022-11-18T03:54:20;11.30;99.90
21895;DHT22;11112;51.270;7.224;2022-11-18T03:56:56;11.30;99.90
21895;DHT22;11112;51.270;7.224;2022-11-18T03:59:28;11.30;99.90
21895;DHT22;11112;51.270;7.224;2022-11-18T04:02:08;11.30;99.90
21895;DHT22;11112;51.270;7.224;2022-11-18T04:04:37;11.30;99.90
21895;DHT22;11112;51.270;7.224;2022-11-18T04:07:09;11.30;99.90
21895;DHT22;11112;51.270;7.224;2022-11-18T04:09:42;11.30;99.90
21895;DHT22;11112;51.270;7.224;2022-11-18T04:12:16;11.20;99.90
21895;DHT22;11112;51.270;7.224;2022-11-18T04:14:45;11.20;99.90
21895;DHT22;11112;51.270;7.224;2022-11-18T04:17:18;11.20;99.90
21895;DHT22;11112;51.270;7.224;2022-11-18T04:19:47;11.20;99.90
21895;DHT22;11112;51.270;7.224;2022-11-18T04:22:15;11.20;99.90
21895;DHT22;11112;51.270;7.224;2022-11-18T04:24:44;11.20;99.90
21895;DHT22;11112;51.270;7.224;2022-11-18T04:27:11;11.20;99.90
21895;DHT22;11112;51.270;7.224;2022-11-18T04:29:39;11.20;99.90
21895;DHT22;11112;51.270;7.224;2022-11-18T04:32:06;11.20;99.90
21895;DHT22;11112;51.270;7.224;2022-11-18T04:34:35;11.20;99.90
21895;DHT22;11112;51.270;7.224;2022-11-18T04:37:02;11.20;99.90
21895;DHT22;11112;51.270;7.224;2022-11-18T04:39:29;11.10;99.90
21895;DHT22;11112;51.270;7.224;2022-11-18T04:41:56;11.10;99.90
21895;DHT22;11112;51.270;7.224;2022-11-18T04:44:25;11.10;99.90
21895;DHT22;11112;51.270;7.224;2022-11-18T04:46:54;11.10;99.90
21895;DHT22;11112;51.270;7.224;2022-11-18T04:49:22;11.10;99.90
21895;DHT22;11112;51.270;7.224;2022-11-18T04:51:52;11.10;99.90
21895;DHT22;11112;51.270;7.224;2022-11-18T04:54:19;11.10;99.90
21895;DHT22;11112;51.270;7.224;2022-11-18T04:56:47;11.10;99.90
21895;DHT22;11112;51.270;7.224;2022-11-18T04:59:16;11.10;99.90
21895;DHT22;11112;51.270;7.224;2022-11-18T05:01:46;11.20;99.90
21895;DHT22;11112;51.270;7.224;2022-11-18T05:04:16;11.20;99.90
21895;DHT22;11112;51.270;7.224;2022-11-18T05:06:45;11.20;99.90
21895;DHT22;11112;51.270;7.224;2022-11-18T05:09:14;11.10;99.90
21895;DHT22;11112;51.270;7.224;2022-11-18T05:11:41;11.10;99.90
21895;DHT22;11112;51.270;7.224;2022-11-18T05:14:27;11.10;99.90
21895;DHT22;11112;51.270;7.224;2022-11-18T05:16:57;11.10;99.90
21895;DHT22;11112;51.270;7.224;2022-11-18T05:19:27;11.10;99.90
21895;DHT22;11112;51.270;7.224;2022-11-18T05:21:54;11.10;99.90
21895;DHT22;11112;51.270;7.224;2022-11-18T05:24:23;11.10;99.90
21895;DHT22;11112;51.270;7.224;2022-11-18T05:26:50;11.10;99.90
21895;DHT22;11112;51.270;7.224;2022-11-18T05:29:19;11.20;99.90
21895;DHT22;11112;51.270;7.224;2022-11-18T05:31:48;11.20;99.90
21895;DHT22;11112;51.270;7.224;2022-11-18T05:34:16;11.10;99.90
21895;DHT22;11112;51.270;7.224;2022-11-18T05:36:43;11.10;99.90
21895;DHT22;11112;51.270;7.224;2022-11-18T05:39:10;11.10;99.90
21895;DHT22;11112;51.270;7.224;2022-11-18T05:41:39;11.10;99.90
21895;DHT22;11112;51.270;7.224;2022-11-18T05:44:23;11.10;99.90
21895;DHT22;11112;51.270;7.224;2022-11-18T05:46:52;11.10;99.90
21895;DHT22;11112;51.270;7.224;2022-11-18T05:49:21;11.10;99.90
21895;DHT22;11112;51.270;7.224;2022-11-18T05:51:50;11.10;99.90
21895;DHT22;11112;51.270;7.224;2022-11-18T05:54:18;11.20;99.90
21895;DHT22;11112;51.270;7.224;2022-11-18T05:56:47;11.20;99.90
21895;DHT22;11112;51.270;7.224;2022-11-18T05:59:15;11.20;99.90
21895;DHT22;11112;51.270;7.224;2022-11-18T06:01:44;11.20;99.90
21895;DHT22;11112;51.270;7.224;2022-11-18T06:04:15;11.20;99.90
21895;DHT22;11112;51.270;7.224;2022-11-18T06:06:45;11.20;99.90
21895;DHT22;11112;51.270;7.224;2022-11-18T06:09:16;11.20;99.90
21895;DHT22;11112;51.270;7.224;2022-11-18T06:11:50;11.20;99.90
21895;DHT22;11112;51.270;7.224;2022-11-18T06:14:22;11.20;99.90
21895;DHT22;11112;51.270;7.224;2022-11-18T06:16:55;11.20;99.90
21895;DHT22;11112;51.270;7.224;2022-11-18T06:19:25;11.20;99.90
21895;DHT22;11112;51.270;7.224;2022-11-18T06:21:52;11.20;99.90
21895;DHT22;11112;51.270;7.224;2022-11-18T06:24:20;11.20;99.90
21895;DHT22;11112;51.270;7.224;2022-11-18T06:26:48;11.20;99.90
21895;DHT22;11112;51.270;7.224;2022-11-18T06:29:17;11.20;99.90
21895;DHT22;11112;51.270;7.224;2022-11-18T06:31:46;11.20;99.90
21895;DHT22;11112;51.270;7.224;2022-11-18T06:34:13;11.20;99.90
21895;DHT22;11112;51.270;7.224;2022-11-18T06:36:40;11.20;99.90
21895;DHT22;11112;51.270;7.224;2022-11-18T06:39:07;11.20;99.90
21895;DHT22;11112;51.270;7.224;2022-11-18T06:41:35;11.20;99.90
21895;DHT22;11112;51.270;7.224;2022-11-18T06:44:04;11.20;99.90
21895;DHT22;11112;51.270;7.224;2022-11-18T06:46:32;11.30;99.90
21895;DHT22;11112;51.270;7.224;2022-11-18T06:49:17;11.30;99.90
21895;DHT22;11112;51.270;7.224;2022-11-18T06:51:44;11.30;99.90
21895;DHT22;11112;51.270;7.224;2022-11-18T06:54:11;11.30;99.90
21895;DHT22;11112;51.270;7.224;2022-11-18T06:56:39;11.30;99.90
21895;DHT22;11112;51.270;7.224;2022-11-18T06:59:09;11.30;99.90
21895;DHT22;11112;51.270;7.224;2022-11-18T07:01:37;11.30;99.90
21895;DHT22;11112;51.270;7.224;2022-11-18T07:04:05;11.30;99.90
21895;DHT22;11112;51.270;7.224;2022-11-18T07:06:34;11.30;99.90
21895;DHT22;11112;51.270;7.224;2022-11-18T07:09:05;11.30;99.90
21895;DHT22;11112;51.270;7.224;2022-11-18T07:11:33;11.30;99.90
21895;DHT22;11112;51.270;7.224;2022-11-18T07:14:03;11.30;99.90
21895;DHT22;11112;51.270;7.224;2022-11-18T07:16:33;11.30;99.90
21895;DHT22;11112;51.270;7.224;2022-11-18T07:19:06;11.30;99.90
21895;DHT22;11112;51.270;7.224;2022-11-18T07:21:35;11.30;99.90
21895;DHT22;11112;51.270;7.224;2022-11-18T07:24:06;11.30;99.90
21895;DHT22;11112;51.270;7.224;2022-11-18T07:26:34;11.30;99.90
21895;DHT22;11112;51.270;7.224;2022-11-18T07:29:02;11.30;99.90
21895;DHT22;11112;51.270;7.224;2022-11-18T07:31:31;11.30;99.90
21895;DHT22;11112;51.270;7.224;2022-11-18T07:33:59;11.30;99.90
21895;DHT22;11112;51.270;7.224;2022-11-18T07:36:28;11.30;99.90
21895;DHT22;11112;51.270;7.224;2022-11-18T07:38:58;11.30;99.90
21895;DHT22;11112;51.270;7.224;2022-11-18T07:41:28;11.30;99.90
21895;DHT22;11112;51.270;7.224;2022-11-18T07:43:58;11.30;99.90
21895;DHT22;11112;51.270;7.224;2022-11-18T07:46:28;11.30;99.90
21895;DHT22;11112;51.270;7.224;2022-11-18T07:49:00;11.30;99.90
21895;DHT22;11112;51.270;7.224;2022-11-18T07:51:30;11.30;99.90
21895;DHT22;11112;51.270;7.224;2022-11-18T07:53:59;11.30;99.90
21895;DHT22;11112;51.270;7.224;2022-11-18T07:56:28;11.30;99.90
21895;DHT22;11112;51.270;7.224;2022-11-18T07:58:57;11.30;99.90
21895;DHT22;11112;51.270;7.224;2022-11-18T08:01:24;11.30;99.90
21895;DHT22;11112;51.270;7.224;2022-11-18T08:03:55;11.30;99.90
21895;DHT22;11112;51.270;7.224;2022-11-18T08:06:24;11.40;99.90
21895;DHT22;11112;51.270;7.224;2022-11-18T08:08:51;11.40;99.90
21895;DHT22;11112;51.270;7.224;2022-11-18T08:11:19;11.40;99.90
21895;DHT22;11112;51.270;7.224;2022-11-18T08:13:47;11.40;99.90
21895;DHT22;11112;51.270;7.224;2022-11-18T08:16:15;11.40;99.90
21895;DHT22;11112;51.270;7.224;2022-11-18T08:18:45;11.40;99.90
21895;DHT22;11112;51.270;7.224;2022-11-18T08:21:14;11.50;99.90
21895;DHT22;11112;51.270;7.224;2022-11-18T08:23:48;11.50;99.90
21895;DHT22;11112;51.270;7.224;2022-11-18T08:26:16;11.50;99.90
21895;DHT22;11112;51.270;7.224;2022-11-18T08:28:46;11.50;99.90
21895;DHT22;11112;51.270;7.224;2022-11-18T08:31:16;11.50;99.90
21895;DHT22;11112;51.270;7.224;2022-11-18T08:33:45;11.50;99.90
21895;DHT22;11112;51.270;7.224;2022-11-18T08:36:14;11.50;99.90
21895;DHT22;11112;51.270;7.224;2022-11-18T08:38:44;11.40;99.90
21895;DHT22;11112;51.270;7.224;2022-11-18T08:41:12;11.50;99.90
21895;DHT22;11112;51.270;7.224;2022-11-18T08:43:41;11.50;99.90
21895;DHT22;11112;51.270;7.224;2022-11-18T08:46:09;11.50;99.90
21895;DHT22;11112;51.270;7.224;2022-11-18T08:48:36;11.50;99.90
21895;DHT22;11112;51.270;7.224;2022-11-18T08:51:03;11.50;99.90
21895;DHT22;11112;51.270;7.224;2022-11-18T08:53:32;11.60;99.90
21895;DHT22;11112;51.270;7.224;2022-11-18T08:56:01;11.60;99.90
21895;DHT22;11112;51.270;7.224;2022-11-18T08:58:29;11.60;99.90
21895;DHT22;11112;51.270;7.224;2022-11-18T09:00:56;11.60;99.90
21895;DHT22;11112;51.270;7.224;2022-11-18T09:03:25;11.60;99.90
21895;DHT22;11112;51.270;7.224;2022-11-18T09:05:52;11.60;99.90
21895;DHT22;11112;51.270;7.224;2022-11-18T09:08:19;11.60;99.90
21895;DHT22;11112;51.270;7.224;2022-11-18T09:10:50;11.60;99.90
21895;DHT22;11112;51.270;7.224;2022-11-18T09:13:19;11.70;99.90
21895;DHT22;11112;51.270;7.224;2022-11-18T09:15:47;11.70;99.90
21895;DHT22;11112;51.270;7.224;2022-11-18T09:18:15;11.60;99.90
21895;DHT22;11112;51.270;7.224;2022-11-18T09:20:53;11.60;99.90
21895;DHT22;11112;51.270;7.224;2022-11-18T09:23:21;11.70;99.90
21895;DHT22;11112;51.270;7.224;2022-11-18T09:25:56;11.60;99.90
21895;DHT22;11112;51.270;7.224;2022-11-18T09:28:26;11.70;99.90
21895;DHT22;11112;51.270;7.224;2022-11-18T09:30:54;11.70;99.90
21895;DHT22;11112;51.270;7.224;2022-11-18T09:33:21;11.70;99.90
21895;DHT22;11112;51.270;7.224;2022-11-18T09:35:49;11.70;99.90
21895;DHT22;11112;51.270;7.224;2022-11-18T09:38:17;11.70;99.90
21895;DHT22;11112;51.270;7.224;2022-11-18T09:40:49;11.70;99.90
21895;DHT22;11112;51.270;7.224;2022-11-18T09:43:29;11.60;99.90
21895;DHT22;11112;51.270;7.224;2022-11-18T09:46:14;11.60;99.90
21895;DHT22;11112;51.270;7.224;2022-11-18T09:48:48;11.60;99.90
21895;DHT22;11112;51.270;7.224;2022-11-18T09:51:38;11.60;99.90
21895;DHT22;11112;51.270;7.224;2022-11-18T09:54:09;11.70;99.90
21895;DHT22;11112;51.270;7.224;2022-11-18T09:56:39;11.70;99.90
21895;DHT22;11112;51.270;7.224;2022-11-18T09:59:12;11.70;99.90
21895;DHT22;11112;51.270;7.224;2022-11-18T10:01:40;11.70;99.90
21895;DHT22;11112;51.270;7.224;2022-11-18T10:04:13;11.70;99.90
21895;DHT22;11112;51.270;7.224;2022-11-18T10:06:41;11.70;99.90
21895;DHT22;11112;51.270;7.224;2022-11-18T10:09:27;11.70;99.90
21895;DHT22;11112;51.270;7.224;2022-11-18T10:12:21;11.70;99.90
21895;DHT22;11112;51.270;7.224;2022-11-18T10:15:07;11.70;99.90
21895;DHT22;11112;51.270;7.224;2022-11-18T10:17:49;11.70;99.90
21895;DHT22;11112;51.270;7.224;2022-11-18T10:20:31;11.70;99.90
21895;DHT22;11112;51.270;7.224;2022-11-18T10:23:13;11.70;99.90
21895;DHT22;11112;51.270;7.224;2022-11-18T10:25:43;11.80;99.90
21895;DHT22;11112;51.270;7.224;2022-11-18T10:28:16;11.80;99.90
21895;DHT22;11112;51.270;7.224;2022-11-18T10:30:48;11.80;99.90
21895;DHT22;11112;51.270;7.224;2022-11-18T10:33:25;11.80;99.90
21895;DHT22;11112;51.270;7.224;2022-11-18T10:36:18;11.90;99.90
21895;DHT22;11112;51.270;7.224;2022-11-18T10:39:06;11.90;99.90
21895;DHT22;11112;51.270;7.224;2022-11-18T10:41:45;11.90;99.90
21895;DHT22;11112;51.270;7.224;2022-11-18T10:44:33;11.90;99.90
21895;DHT22;11112;51.270;7.224;2022-11-18T10:47:31;11.90;99.90
21895;DHT22;11112;51.270;7.224;2022-11-18T10:49:59;11.90;99.90
21895;DHT22;11112;51.270;7.224;2022-11-18T10:52:50;11.90;99.90
21895;DHT22;11112;51.270;7.224;2022-11-18T10:55:21;11.90;99.90
21895;DHT22;11112;51.270;7.224;2022-11-18T10:57:52;12.00;99.90
21895;DHT22;11112;51.270;7.224;2022-11-18T11:00:42;11.90;99.90
21895;DHT22;11112;51.270;7.224;2022-11-18T11:03:24;11.90;99.90
21895;DHT22;11112;51.270;7.224;2022-11-18T11:06:29;12.00;99.70
21895;DHT22;11112;51.270;7.224;2022-11-18T11:09:01;11.90;99.90
21895;DHT22;11112;51.270;7.224;2022-11-18T11:11:32;11.90;99.70
21895;DHT22;11112;51.270;7.224;2022-11-18T11:14:14;11.90;99.70
21895;DHT22;11112;51.270;7.224;2022-11-18T11:16:55;11.90;99.80
21895;DHT22;11112;51.270;7.224;2022-11-18T11:19:35;12.00;99.90
21895;DHT22;11112;51.270;7.224;2022-11-18T11:22:09;12.00;99.90
21895;DHT22;11112;51.270;7.224;2022-11-18T11:24:38;12.00;99.90
21895;DHT22;11112;51.270;7.224;2022-11-18T11:30:14;12.00;99.90
21895;DHT22;11112;51.270;7.224;2022-11-18T11:35:47;12.00;99.90
21895;DHT22;11112;51.270;7.224;2022-11-18T11:38:24;12.00;99.90
21895;DHT22;11112;51.270;7.224;2022-11-18T11:41:09;12.00;99.90
21895;DHT22;11112;51.270;7.224;2022-11-18T11:43:54;12.00;99.90
21895;DHT22;11112;51.270;7.224;2022-11-18T11:46:38;12.10;99.90
21895;DHT22;11112;51.270;7.224;2022-11-18T11:49:44;12.10;99.90
21895;DHT22;11112;51.270;7.224;2022-11-18T11:52:28;12.10;99.80
21895;DHT22;11112;51.270;7.224;2022-11-18T11:55:13;12.10;99.90
21895;DHT22;11112;51.270;7.224;2022-11-18T11:57:55;12.00;99.70
21895;DHT22;11112;51.270;7.224;2022-11-18T12:00:29;12.00;99.90
21895;DHT22;11112;51.270;7.224;2022-11-18T12:03:18;12.00;99.90
21895;DHT22;11112;51.270;7.224;2022-11-18T12:05:53;12.10;99.90
21895;DHT22;11112;51.270;7.224;2022-11-18T12:08:23;12.00;99.70
21895;DHT22;11112;51.270;7.224;2022-11-18T12:10:59;12.10;99.60
21895;DHT22;11112;51.270;7.224;2022-11-18T12:13:36;12.10;99.70
21895;DHT22;11112;51.270;7.224;2022-11-18T12:16:24;12.00;98.80
21895;DHT22;11112;51.270;7.224;2022-11-18T12:18:58;12.00;98.80
21895;DHT22;11112;51.270;7.224;2022-11-18T12:21:58;12.00;98.50
21895;DHT22;11112;51.270;7.224;2022-11-18T12:24:42;12.10;98.70
21895;DHT22;11112;51.270;7.224;2022-11-18T12:27:14;12.10;98.70
21895;DHT22;11112;51.270;7.224;2022-11-18T12:30:19;12.10;98.70
21895;DHT22;11112;51.270;7.224;2022-11-18T12:32:56;12.20;98.50
21895;DHT22;11112;51.270;7.224;2022-11-18T12:35:26;12.20;98.60
21895;DHT22;11112;51.270;7.224;2022-11-18T12:38:02;12.20;98.50
21895;DHT22;11112;51.270;7.224;2022-11-18T12:40:48;12.20;98.40
21895;DHT22;11112;51.270;7.224;2022-11-18T12:52:53;12.20;98.40
21895;DHT22;11112;51.270;7.224;2022-11-18T12:55:29;12.20;98.40
21895;DHT22;11112;51.270;7.224;2022-11-18T12:57:59;12.20;98.30
21895;DHT22;11112;51.270;7.224;2022-11-18T13:00:32;12.30;98.20
21895;DHT22;11112;51.270;7.224;2022-11-18T13:03:30;12.30;98.30
21895;DHT22;11112;51.270;7.224;2022-11-18T13:06:10;12.20;98.20
21895;DHT22;11112;51.270;7.224;2022-11-18T13:08:40;12.30;98.20
21895;DHT22;11112;51.270;7.224;2022-11-18T13:11:13;12.30;98.30
21895;DHT22;11112;51.270;7.224;2022-11-18T13:13:58;12.30;98.20
21895;DHT22;11112;51.270;7.224;2022-11-18T13:16:47;12.30;98.00
21895;DHT22;11112;51.270;7.224;2022-11-18T13:19:33;12.20;97.90
21895;DHT22;11112;51.270;7.224;2022-11-18T13:22:01;12.20;98.10
21895;DHT22;11112;51.270;7.224;2022-11-18T13:24:48;12.20;98.10
21895;DHT22;11112;51.270;7.224;2022-11-18T13:27:26;12.20;98.10
21895;DHT22;11112;51.270;7.224;2022-11-18T13:30:03;12.20;98.20
21895;DHT22;11112;51.270;7.224;2022-11-18T13:32:32;12.20;98.20
21895;DHT22;11112;51.270;7.224;2022-11-18T13:35:10;12.20;98.10
21895;DHT22;11112;51.270;7.224;2022-11-18T13:37:47;12.20;98.10
21895;DHT22;11112;51.270;7.224;2022-11-18T13:40:22;12.20;98.10
21895;DHT22;11112;51.270;7.224;2022-11-18T13:42:50;12.20;98.20
21895;DHT22;11112;51.270;7.224;2022-11-18T13:45:19;12.20;98.10
21895;DHT22;11112;51.270;7.224;2022-11-18T13:47:50;12.20;98.20
21895;DHT22;11112;51.270;7.224;2022-11-18T13:50:24;12.20;98.20
21895;DHT22;11112;51.270;7.224;2022-11-18T13:53:00;12.20;98.30
21895;DHT22;11112;51.270;7.224;2022-11-18T13:55:35;12.20;98.40
21895;DHT22;11112;51.270;7.224;2022-11-18T13:58:05;12.20;98.30
21895;DHT22;11112;51.270;7.224;2022-11-18T14:00:54;12.20;98.30
21895;DHT22;11112;51.270;7.224;2022-11-18T14:03:27;12.20;98.10
21895;DHT22;11112;51.270;7.224;2022-11-18T14:05:58;12.20;98.20
21895;DHT22;11112;51.270;7.224;2022-11-18T14:08:28;12.20;98.20
21895;DHT22;11112;51.270;7.224;2022-11-18T14:10:57;12.20;98.20
21895;DHT22;11112;51.270;7.224;2022-11-18T14:13:26;12.10;98.20
21895;DHT22;11112;51.270;7.224;2022-11-18T14:15:56;12.10;98.30
21895;DHT22;11112;51.270;7.224;2022-11-18T14:18:29;12.10;98.40
21895;DHT22;11112;51.270;7.224;2022-11-18T14:21:00;12.10;98.40
21895;DHT22;11112;51.270;7.224;2022-11-18T14:23:30;12.10;98.20
21895;DHT22;11112;51.270;7.224;2022-11-18T14:25:59;12.10;98.10
21895;DHT22;11112;51.270;7.224;2022-11-18T14:28:29;12.10;98.20
21895;DHT22;11112;51.270;7.224;2022-11-18T14:31:04;12.00;98.20
21895;DHT22;11112;51.270;7.224;2022-11-18T14:33:34;12.10;98.30
21895;DHT22;11112;51.270;7.224;2022-11-18T14:36:09;12.10;98.20
21895;DHT22;11112;51.270;7.224;2022-11-18T14:38:42;12.00;98.20
21895;DHT22;11112;51.270;7.224;2022-11-18T14:41:11;12.10;98.30
21895;DHT22;11112;51.270;7.224;2022-11-18T14:43:40;12.10;98.20
21895;DHT22;11112;51.270;7.224;2022-11-18T14:46:14;12.00;98.10
21895;DHT22;11112;51.270;7.224;2022-11-18T14:48:42;12.10;98.20
21895;DHT22;11112;51.270;7.224;2022-11-18T14:51:13;12.00;98.20
21895;DHT22;11112;51.270;7.224;2022-11-18T14:53:41;12.00;98.10
21895;DHT22;11112;51.270;7.224;2022-11-18T14:56:12;12.10;98.10
21895;DHT22;11112;51.270;7.224;2022-11-18T14:58:42;12.00;98.00
21895;DHT22;11112;51.270;7.224;2022-11-18T15:01:10;12.00;98.10
21895;DHT22;11112;51.270;7.224;2022-11-18T15:03:38;11.90;98.00
21895;DHT22;11112;51.270;7.224;2022-11-18T15:06:13;12.00;98.10
21895;DHT22;11112;51.270;7.224;2022-11-18T15:08:41;12.00;98.00
21895;DHT22;11112;51.270;7.224;2022-11-18T15:11:08;12.00;98.10
21895;DHT22;11112;51.270;7.224;2022-11-18T15:13:35;11.90;98.00
21895;DHT22;11112;51.270;7.224;2022-11-18T15:16:10;11.90;98.20
21895;DHT22;11112;51.270;7.224;2022-11-18T15:18:40;11.90;98.10
21895;DHT22;11112;51.270;7.224;2022-11-18T15:21:07;11.90;98.00
21895;DHT22;11112;51.270;7.224;2022-11-18T15:23:36;11.80;98.10
21895;DHT22;11112;51.270;7.224;2022-11-18T15:26:20;11.80;98.10
21895;DHT22;11112;51.270;7.224;2022-11-18T15:28:49;11.80;98.00
21895;DHT22;11112;51.270;7.224;2022-11-18T15:31:18;11.70;98.20
21895;DHT22;11112;51.270;7.224;2022-11-18T15:33:46;11.70;98.20
21895;DHT22;11112;51.270;7.224;2022-11-18T15:36:15;11.70;98.00
21895;DHT22;11112;51.270;7.224;2022-11-18T15:38:45;11.70;98.10
21895;DHT22;11112;51.270;7.224;2022-11-18T15:41:16;11.70;98.10
21895;DHT22;11112;51.270;7.224;2022-11-18T15:43:45;11.70;98.00
21895;DHT22;11112;51.270;7.224;2022-11-18T15:46:13;11.70;98.00
21895;DHT22;11112;51.270;7.224;2022-11-18T15:48:40;11.60;98.00
21895;DHT22;11112;51.270;7.224;2022-11-18T15:51:08;11.60;98.00
21895;DHT22;11112;51.270;7.224;2022-11-18T15:53:35;11.50;97.90
21895;DHT22;11112;51.270;7.224;2022-11-18T15:56:25;11.50;98.00
21895;DHT22;11112;51.270;7.224;2022-11-18T15:58:54;11.50;98.00
21895;DHT22;11112;51.270;7.224;2022-11-18T16:01:23;11.50;98.00
21895;DHT22;11112;51.270;7.224;2022-11-18T16:03:51;11.50;98.00
21895;DHT22;11112;51.270;7.224;2022-11-18T16:06:18;11.50;97.90
21895;DHT22;11112;51.270;7.224;2022-11-18T16:08:45;11.40;98.00
21895;DHT22;11112;51.270;7.224;2022-11-18T16:11:13;11.40;98.30
21895;DHT22;11112;51.270;7.224;2022-11-18T16:14:00;11.40;98.00
21895;DHT22;11112;51.270;7.224;2022-11-18T16:16:28;11.40;97.80
21895;DHT22;11112;51.270;7.224;2022-11-18T16:18:56;11.30;97.80